sensor_id;sensor_type;location;lat;lon;timestamp;temperature;humidity
70830;SHT30;58451;51.550;7.208;2022-09-30T00:01:34;6.00;76.66
70830;SHT30;58451;51.550;7.208;2022-09-30T00:04:04;5.96;76.66
70830;SHT30;58451;51.550;7.208;2022-09-30T00:06:33;5.92;76.65
70830;SHT30;58451;51.550;7.208;2022-09-30T00:09:02;5.89;76.65
70830;SHT30;58451;51.550;7.208;2022-09-30T00:11:31;5.86;76.66
70830;SHT30;58451;51.550;7.208;2022-09-30T00:14:01;5.84;76.72
70830;SHT30;58451;51.550;7.208;2022-09-30T00:16:33;5.83;76.87
70830;SHT30;58451;51.550;7.208;2022-09-30T00:19:02;5.80;76.90
70830;SHT30;58451;51.550;7.208;2022-09-30T00:21:31;5.78;76.99
70830;SHT30;58451;51.550;7.208;2022-09-30T00:24:00;5.75;77.10
70830;SHT30;58451;51.550;7.208;2022-09-30T00:26:28;5.73;77.13
70830;SHT30;58451;51.550;7.208;2022-09-30T00:28:56;5.72;77.22
70830;SHT30;58451;51.550;7.208;2022-09-30T00:31:25;5.70;77.19
70830;SHT30;58451;51.550;7.208;2022-09-30T00:33:56;5.69;77.25
70830;SHT30;58451;51.550;7.208;2022-09-30T00:36:41;5.68;77.29
70830;SHT30;58451;51.550;7.208;2022-09-30T00:39:15;5.64;77.33
70830;SHT30;58451;51.550;7.208;2022-09-30T00:42:00;5.62;77.34
70830;SHT30;58451;51.550;7.208;2022-09-30T00:47:59;5.58;77.49
70830;SHT30;58451;51.550;7.208;2022-09-30T00:56:06;5.49;77.67
70830;SHT30;58451;51.550;7.208;2022-09-30T00:58:43;5.49;77.58
70830;SHT30;58451;51.550;7.208;2022-09-30T01:01:13;5.53;77.91
70830;SHT30;58451;51.550;7.208;2022-09-30T01:03:42;5.55;77.94
70830;SHT30;58451;51.550;7.208;2022-09-30T01:06:25;5.55;77.95
70830;SHT30;58451;51.550;7.208;2022-09-30T01:08:53;5.51;77.96
70830;SHT30;58451;51.550;7.208;2022-09-30T01:11:20;5.49;77.98
70830;SHT30;58451;51.550;7.208;2022-09-30T01:13:48;5.47;78.07
70830;SHT30;58451;51.550;7.208;2022-09-30T01:22:23;5.40;78.17
70830;SHT30;58451;51.550;7.208;2022-09-30T01:45:55;5.27;78.90
70830;SHT30;58451;51.550;7.208;2022-09-30T01:54:17;5.26;78.97
70830;SHT30;58451;51.550;7.208;2022-09-30T01:57:22;5.24;78.96
70830;SHT30;58451;51.550;7.208;2022-09-30T02:00:05;5.20;78.87
70830;SHT30;58451;51.550;7.208;2022-09-30T02:02:44;5.18;78.85
70830;SHT30;58451;51.550;7.208;2022-09-30T02:05:21;5.16;78.85
70830;SHT30;58451;51.550;7.208;2022-09-30T02:08:37;5.15;78.86
70830;SHT30;58451;51.550;7.208;2022-09-30T02:11:07;5.11;78.94
70830;SHT30;58451;51.550;7.208;2022-09-30T02:14:01;5.08;78.88
70830;SHT30;58451;51.550;7.208;2022-09-30T02:16:38;5.06;78.97
70830;SHT30;58451;51.550;7.208;2022-09-30T02:19:18;5.02;78.97
70830;SHT30;58451;51.550;7.208;2022-09-30T02:22:09;4.99;79.12
70830;SHT30;58451;51.550;7.208;2022-09-30T02:24:43;4.96;79.10
70830;SHT30;58451;51.550;7.208;2022-09-30T02:27:16;4.94;79.12
70830;SHT30;58451;51.550;7.208;2022-09-30T02:29:56;4.91;79.16
70830;SHT30;58451;51.550;7.208;2022-09-30T02:32:32;4.89;79.16
70830;SHT30;58451;51.550;7.208;2022-09-30T02:35:17;4.86;79.20
70830;SHT30;58451;51.550;7.208;2022-09-30T02:38:10;4.84;79.20
70830;SHT30;58451;51.550;7.208;2022-09-30T02:40:54;4.82;79.21
70830;SHT30;58451;51.550;7.208;2022-09-30T02:43:30;4.81;79.41
70830;SHT30;58451;51.550;7.208;2022-09-30T02:49:09;4.76;79.33
70830;SHT30;58451;51.550;7.208;2022-09-30T02:57:48;4.69;79.68
70830;SHT30;58451;51.550;7.208;2022-09-30T03:01:02;4.67;79.63
70830;SHT30;58451;51.550;7.208;2022-09-30T03:03:31;4.66;79.57
70830;SHT30;58451;51.550;7.208;2022-09-30T03:06:08;4.64;79.54
70830;SHT30;58451;51.550;7.208;2022-09-30T03:08:38;4.62;79.65
70830;SHT30;58451;51.550;7.208;2022-09-30T03:11:04;4.59;79.61
70830;SHT30;58451;51.550;7.208;2022-09-30T03:25:56;4.51;79.71
70830;SHT30;58451;51.550;7.208;2022-09-30T03:37:53;4.45;79.86
70830;SHT30;58451;51.550;7.208;2022-09-30T03:40:30;4.44;79.84
70830;SHT30;58451;51.550;7.208;2022-09-30T03:48:51;4.45;81.25
70830;SHT30;58451;51.550;7.208;2022-09-30T03:51:28;4.43;80.92
70830;SHT30;58451;51.550;7.208;2022-09-30T03:53:57;4.41;80.68
70830;SHT30;58451;51.550;7.208;2022-09-30T03:56:26;4.38;80.55
70830;SHT30;58451;51.550;7.208;2022-09-30T03:58:56;4.38;80.47
70830;SHT30;58451;51.550;7.208;2022-09-30T04:01:26;4.37;80.41
70830;SHT30;58451;51.550;7.208;2022-09-30T04:03:58;4.35;80.34
70830;SHT30;58451;51.550;7.208;2022-09-30T04:06:24;4.34;80.32
70830;SHT30;58451;51.550;7.208;2022-09-30T04:08:51;4.33;80.30
70830;SHT30;58451;51.550;7.208;2022-09-30T04:11:19;4.32;80.28
70830;SHT30;58451;51.550;7.208;2022-09-30T04:13:48;4.32;80.29
70830;SHT30;58451;51.550;7.208;2022-09-30T04:16:15;4.31;80.30
70830;SHT30;58451;51.550;7.208;2022-09-30T04:18:43;4.32;80.40
70830;SHT30;58451;51.550;7.208;2022-09-30T04:21:11;4.31;80.43
70830;SHT30;58451;51.550;7.208;2022-09-30T04:23:40;4.30;80.45
70830;SHT30;58451;51.550;7.208;2022-09-30T04:26:12;4.30;80.47
70830;SHT30;58451;51.550;7.208;2022-09-30T04:28:42;4.29;80.46
70830;SHT30;58451;51.550;7.208;2022-09-30T04:31:10;4.29;80.50
70830;SHT30;58451;51.550;7.208;2022-09-30T04:33:39;4.28;80.53
70830;SHT30;58451;51.550;7.208;2022-09-30T04:36:10;4.28;80.58
70830;SHT30;58451;51.550;7.208;2022-09-30T04:38:37;4.26;80.57
70830;SHT30;58451;51.550;7.208;2022-09-30T04:41:05;4.24;80.58
70830;SHT30;58451;51.550;7.208;2022-09-30T04:43:32;4.23;80.66
70830;SHT30;58451;51.550;7.208;2022-09-30T04:46:00;4.22;80.63
70830;SHT30;58451;51.550;7.208;2022-09-30T04:48:29;4.22;80.57
70830;SHT30;58451;51.550;7.208;2022-09-30T04:51:01;4.21;80.62
70830;SHT30;58451;51.550;7.208;2022-09-30T04:53:28;4.21;80.59
70830;SHT30;58451;51.550;7.208;2022-09-30T04:55:59;4.22;80.66
70830;SHT30;58451;51.550;7.208;2022-09-30T04:58:28;4.22;80.74
70830;SHT30;58451;51.550;7.208;2022-09-30T05:01:03;4.22;80.76
70830;SHT30;58451;51.550;7.208;2022-09-30T05:03:35;4.23;82.82
70830;SHT30;58451;51.550;7.208;2022-09-30T05:06:02;4.23;83.43
70830;SHT30;58451;51.550;7.208;2022-09-30T05:08:31;4.25;83.69
70830;SHT30;58451;51.550;7.208;2022-09-30T05:11:05;4.25;83.51
70830;SHT30;58451;51.550;7.208;2022-09-30T05:13:39;4.25;83.03
70830;SHT30;58451;51.550;7.208;2022-09-30T05:16:08;4.24;82.61
70830;SHT30;58451;51.550;7.208;2022-09-30T05:18:36;4.25;82.74
70830;SHT30;58451;51.550;7.208;2022-09-30T05:21:16;4.26;83.23
70830;SHT30;58451;51.550;7.208;2022-09-30T05:23:52;4.27;82.75
70830;SHT30;58451;51.550;7.208;2022-09-30T05:26:29;4.26;82.41
70830;SHT30;58451;51.550;7.208;2022-09-30T05:28:56;4.26;82.24
70830;SHT30;58451;51.550;7.208;2022-09-30T05:31:23;4.28;82.12
70830;SHT30;58451;51.550;7.208;2022-09-30T05:33:53;4.27;82.07
70830;SHT30;58451;51.550;7.208;2022-09-30T05:36:24;4.28;81.96
70830;SHT30;58451;51.550;7.208;2022-09-30T05:38:51;4.31;83.03
70830;SHT30;58451;51.550;7.208;2022-09-30T05:41:19;4.33;83.95
70830;SHT30;58451;51.550;7.208;2022-09-30T05:43:46;4.33;83.34
70830;SHT30;58451;51.550;7.208;2022-09-30T05:46:18;4.35;83.03
70830;SHT30;58451;51.550;7.208;2022-09-30T05:48:47;4.38;83.08
70830;SHT30;58451;51.550;7.208;2022-09-30T05:51:19;4.41;83.00
70830;SHT30;58451;51.550;7.208;2022-09-30T05:53:46;4.43;82.68
70830;SHT30;58451;51.550;7.208;2022-09-30T05:56:13;4.46;82.44
70830;SHT30;58451;51.550;7.208;2022-09-30T05:58:40;4.50;82.29
70830;SHT30;58451;51.550;7.208;2022-09-30T06:01:12;4.54;82.17
70830;SHT30;58451;51.550;7.208;2022-09-30T06:03:42;4.58;81.96
70830;SHT30;58451;51.550;7.208;2022-09-30T06:06:12;4.62;81.95
70830;SHT30;58451;51.550;7.208;2022-09-30T06:08:41;4.68;81.85
70830;SHT30;58451;51.550;7.208;2022-09-30T06:11:12;4.75;81.83
70830;SHT30;58451;51.550;7.208;2022-09-30T06:13:43;4.82;81.78
70830;SHT30;58451;51.550;7.208;2022-09-30T06:16:16;4.88;81.69
70830;SHT30;58451;51.550;7.208;2022-09-30T06:18:44;4.96;81.70
70830;SHT30;58451;51.550;7.208;2022-09-30T06:21:14;5.05;81.68
70830;SHT30;58451;51.550;7.208;2022-09-30T06:23:51;5.15;81.61
70830;SHT30;58451;51.550;7.208;2022-09-30T06:26:27;5.25;81.96
70830;SHT30;58451;51.550;7.208;2022-09-30T06:28:57;5.37;81.85
70830;SHT30;58451;51.550;7.208;2022-09-30T06:31:28;5.49;81.69
70830;SHT30;58451;51.550;7.208;2022-09-30T06:33:57;5.60;81.60
70830;SHT30;58451;51.550;7.208;2022-09-30T06:36:24;5.73;81.54
70830;SHT30;58451;51.550;7.208;2022-09-30T06:38:53;5.89;81.49
70830;SHT30;58451;51.550;7.208;2022-09-30T06:41:20;6.03;81.40
70830;SHT30;58451;51.550;7.208;2022-09-30T06:43:55;6.20;81.29
70830;SHT30;58451;51.550;7.208;2022-09-30T06:46:34;6.36;81.21
70830;SHT30;58451;51.550;7.208;2022-09-30T06:49:18;6.53;81.17
70830;SHT30;58451;51.550;7.208;2022-09-30T06:51:48;6.72;81.44
70830;SHT30;58451;51.550;7.208;2022-09-30T06:54:22;6.93;81.15
70830;SHT30;58451;51.550;7.208;2022-09-30T06:56:49;7.10;80.95
70830;SHT30;58451;51.550;7.208;2022-09-30T06:59:18;7.26;80.87
70830;SHT30;58451;51.550;7.208;2022-09-30T07:01:45;7.45;81.04
70830;SHT30;58451;51.550;7.208;2022-09-30T07:04:12;7.64;81.12
70830;SHT30;58451;51.550;7.208;2022-09-30T07:06:39;7.81;80.81
70830;SHT30;58451;51.550;7.208;2022-09-30T07:09:07;7.98;80.76
70830;SHT30;58451;51.550;7.208;2022-09-30T07:11:36;8.16;80.54
70830;SHT30;58451;51.550;7.208;2022-09-30T07:14:05;8.32;80.38
70830;SHT30;58451;51.550;7.208;2022-09-30T07:16:41;8.48;80.20
70830;SHT30;58451;51.550;7.208;2022-09-30T07:19:10;8.63;80.05
70830;SHT30;58451;51.550;7.208;2022-09-30T07:21:37;8.80;80.03
70830;SHT30;58451;51.550;7.208;2022-09-30T07:24:05;8.96;79.95
70830;SHT30;58451;51.550;7.208;2022-09-30T07:26:35;9.12;79.76
70830;SHT30;58451;51.550;7.208;2022-09-30T07:29:06;9.28;79.54
70830;SHT30;58451;51.550;7.208;2022-09-30T07:31:32;9.41;79.23
70830;SHT30;58451;51.550;7.208;2022-09-30T07:34:03;9.55;79.13
70830;SHT30;58451;51.550;7.208;2022-09-30T07:36:36;9.70;79.05
70830;SHT30;58451;51.550;7.208;2022-09-30T07:39:06;9.88;78.94
70830;SHT30;58451;51.550;7.208;2022-09-30T07:41:37;10.01;78.47
70830;SHT30;58451;51.550;7.208;2022-09-30T07:44:10;10.09;78.11
70830;SHT30;58451;51.550;7.208;2022-09-30T07:46:40;10.21;78.20
70830;SHT30;58451;51.550;7.208;2022-09-30T07:49:14;10.34;78.14
70830;SHT30;58451;51.550;7.208;2022-09-30T07:51:51;10.48;78.01
70830;SHT30;58451;51.550;7.208;2022-09-30T07:54:24;10.61;77.82
70830;SHT30;58451;51.550;7.208;2022-09-30T07:56:54;10.69;77.17
70830;SHT30;58451;51.550;7.208;2022-09-30T07:59:36;10.80;76.84
70830;SHT30;58451;51.550;7.208;2022-09-30T08:02:09;10.89;76.71
70830;SHT30;58451;51.550;7.208;2022-09-30T08:04:41;10.99;76.06
70830;SHT30;58451;51.550;7.208;2022-09-30T08:07:10;11.09;76.29
70830;SHT30;58451;51.550;7.208;2022-09-30T08:09:39;11.21;76.28
70830;SHT30;58451;51.550;7.208;2022-09-30T08:12:06;11.34;76.18
70830;SHT30;58451;51.550;7.208;2022-09-30T08:14:34;11.46;75.74
70830;SHT30;58451;51.550;7.208;2022-09-30T08:17:01;11.58;74.76
70830;SHT30;58451;51.550;7.208;2022-09-30T08:19:29;11.67;74.74
70830;SHT30;58451;51.550;7.208;2022-09-30T08:21:56;11.78;73.95
70830;SHT30;58451;51.550;7.208;2022-09-30T08:24:24;11.89;74.14
70830;SHT30;58451;51.550;7.208;2022-09-30T08:26:52;12.05;74.06
70830;SHT30;58451;51.550;7.208;2022-09-30T08:29:20;12.18;73.05
70830;SHT30;58451;51.550;7.208;2022-09-30T08:32:07;12.27;71.63
70830;SHT30;58451;51.550;7.208;2022-09-30T08:34:34;12.36;72.09
70830;SHT30;58451;51.550;7.208;2022-09-30T08:37:02;12.47;70.99
70830;SHT30;58451;51.550;7.208;2022-09-30T08:39:35;12.57;70.84
70830;SHT30;58451;51.550;7.208;2022-09-30T08:54:04;13.25;70.31
70830;SHT30;58451;51.550;7.208;2022-09-30T08:56:39;13.37;69.08
70830;SHT30;58451;51.550;7.208;2022-09-30T08:59:18;13.44;68.79
70830;SHT30;58451;51.550;7.208;2022-09-30T09:01:54;13.53;69.20
70830;SHT30;58451;51.550;7.208;2022-09-30T09:05:03;13.70;68.67
70830;SHT30;58451;51.550;7.208;2022-09-30T09:16:20;14.22;66.81
70830;SHT30;58451;51.550;7.208;2022-09-30T09:19:15;14.32;66.06
70830;SHT30;58451;51.550;7.208;2022-09-30T09:22:00;14.36;65.46
70830;SHT30;58451;51.550;7.208;2022-09-30T09:24:32;14.49;66.54
70830;SHT30;58451;51.550;7.208;2022-09-30T09:30:14;14.80;63.76
70830;SHT30;58451;51.550;7.208;2022-09-30T09:32:50;14.80;63.69
70830;SHT30;58451;51.550;7.208;2022-09-30T09:38:37;14.93;64.28
70830;SHT30;58451;51.550;7.208;2022-09-30T09:41:13;15.09;63.22
70830;SHT30;58451;51.550;7.208;2022-09-30T09:43:54;15.18;62.69
70830;SHT30;58451;51.550;7.208;2022-09-30T09:54:39;15.55;61.10
70830;SHT30;58451;51.550;7.208;2022-09-30T09:57:16;15.65;59.49
70830;SHT30;58451;51.550;7.208;2022-09-30T09:59:55;15.67;58.71
70830;SHT30;58451;51.550;7.208;2022-09-30T10:03:11;15.74;58.65
70830;SHT30;58451;51.550;7.208;2022-09-30T10:06:02;15.80;58.95
70830;SHT30;58451;51.550;7.208;2022-09-30T10:08:36;15.91;60.15
70830;SHT30;58451;51.550;7.208;2022-09-30T10:11:06;16.07;59.99
70830;SHT30;58451;51.550;7.208;2022-09-30T10:13:48;16.21;58.89
70830;SHT30;58451;51.550;7.208;2022-09-30T10:18:57;16.26;59.15
70830;SHT30;58451;51.550;7.208;2022-09-30T10:21:26;16.36;58.32
70830;SHT30;58451;51.550;7.208;2022-09-30T10:23:56;16.36;57.69
70830;SHT30;58451;51.550;7.208;2022-09-30T10:26:24;16.30;56.98
70830;SHT30;58451;51.550;7.208;2022-09-30T10:29:00;16.34;58.14
70830;SHT30;58451;51.550;7.208;2022-09-30T10:31:39;16.45;57.78
70830;SHT30;58451;51.550;7.208;2022-09-30T10:34:22;16.58;57.93
70830;SHT30;58451;51.550;7.208;2022-09-30T10:36:56;16.71;57.43
70830;SHT30;58451;51.550;7.208;2022-09-30T10:39:28;16.75;56.09
70830;SHT30;58451;51.550;7.208;2022-09-30T10:44:54;16.85;56.63
70830;SHT30;58451;51.550;7.208;2022-09-30T10:47:27;16.82;54.56
70830;SHT30;58451;51.550;7.208;2022-09-30T10:50:03;16.76;54.14
70830;SHT30;58451;51.550;7.208;2022-09-30T10:52:38;16.63;53.52
70830;SHT30;58451;51.550;7.208;2022-09-30T10:57:47;16.58;55.00
70830;SHT30;58451;51.550;7.208;2022-09-30T11:00:21;16.78;55.04
70830;SHT30;58451;51.550;7.208;2022-09-30T11:02:54;16.91;54.34
70830;SHT30;58451;51.550;7.208;2022-09-30T11:05:29;16.94;54.01
70830;SHT30;58451;51.550;7.208;2022-09-30T11:08:02;16.95;53.97
70830;SHT30;58451;51.550;7.208;2022-09-30T11:10:49;17.11;53.29
70830;SHT30;58451;51.550;7.208;2022-09-30T11:13:49;17.20;52.72
70830;SHT30;58451;51.550;7.208;2022-09-30T11:16:53;17.34;52.61
70830;SHT30;58451;51.550;7.208;2022-09-30T11:19:52;17.59;52.05
70830;SHT30;58451;51.550;7.208;2022-09-30T11:31:15;18.41;50.21
70830;SHT30;58451;51.550;7.208;2022-09-30T11:43:07;18.63;49.72
70830;SHT30;58451;51.550;7.208;2022-09-30T11:45:50;18.87;49.86
70830;SHT30;58451;51.550;7.208;2022-09-30T11:55:09;19.32;47.37
70830;SHT30;58451;51.550;7.208;2022-09-30T11:58:13;19.44;47.43
70830;SHT30;58451;51.550;7.208;2022-09-30T12:01:12;19.56;47.40
70830;SHT30;58451;51.550;7.208;2022-09-30T12:03:56;19.68;46.98
70830;SHT30;58451;51.550;7.208;2022-09-30T12:06:34;19.53;45.64
70830;SHT30;58451;51.550;7.208;2022-09-30T12:09:23;19.35;44.91
70830;SHT30;58451;51.550;7.208;2022-09-30T12:14:46;19.18;45.71
70830;SHT30;58451;51.550;7.208;2022-09-30T12:17:19;19.29;45.51
70830;SHT30;58451;51.550;7.208;2022-09-30T12:25:54;19.27;45.37
70830;SHT30;58451;51.550;7.208;2022-09-30T12:35:01;18.46;46.29
70830;SHT30;58451;51.550;7.208;2022-09-30T12:49:14;18.36;46.35
70830;SHT30;58451;51.550;7.208;2022-09-30T12:51:50;18.28;46.51
70830;SHT30;58451;51.550;7.208;2022-09-30T12:54:24;18.17;45.74
70830;SHT30;58451;51.550;7.208;2022-09-30T12:56:59;18.05;46.27
70830;SHT30;58451;51.550;7.208;2022-09-30T12:59:51;18.08;46.91
70830;SHT30;58451;51.550;7.208;2022-09-30T13:02:25;18.23;46.63
70830;SHT30;58451;51.550;7.208;2022-09-30T13:15:43;18.43;44.83
70830;SHT30;58451;51.550;7.208;2022-09-30T13:31:30;19.08;45.51
70830;SHT30;58451;51.550;7.208;2022-09-30T13:34:22;19.28;44.35
70830;SHT30;58451;51.550;7.208;2022-09-30T13:37:32;19.37;44.80
70830;SHT30;58451;51.550;7.208;2022-09-30T13:40:03;19.53;44.74
70830;SHT30;58451;51.550;7.208;2022-09-30T13:42:43;19.69;44.30
70830;SHT30;58451;51.550;7.208;2022-09-30T13:45:24;19.88;44.49
70830;SHT30;58451;51.550;7.208;2022-09-30T13:50:43;20.17;43.84
70830;SHT30;58451;51.550;7.208;2022-09-30T13:53:29;20.04;42.85
70830;SHT30;58451;51.550;7.208;2022-09-30T13:56:06;19.70;42.78
70830;SHT30;58451;51.550;7.208;2022-09-30T14:10:42;19.66;43.63
70830;SHT30;58451;51.550;7.208;2022-09-30T14:16:39;19.66;44.23
70830;SHT30;58451;51.550;7.208;2022-09-30T14:22:13;19.93;44.61
70830;SHT30;58451;51.550;7.208;2022-09-30T14:24:41;20.43;43.20
70830;SHT30;58451;51.550;7.208;2022-09-30T14:27:13;21.00;41.93
70830;SHT30;58451;51.550;7.208;2022-09-30T14:32:55;21.95;41.57
70830;SHT30;58451;51.550;7.208;2022-09-30T14:35:33;22.85;39.29
70830;SHT30;58451;51.550;7.208;2022-09-30T14:38:16;23.19;36.71
70830;SHT30;58451;51.550;7.208;2022-09-30T14:40:49;23.40;37.33
70830;SHT30;58451;51.550;7.208;2022-09-30T14:43:25;23.40;35.85
70830;SHT30;58451;51.550;7.208;2022-09-30T14:46:41;22.88;37.99
70830;SHT30;58451;51.550;7.208;2022-09-30T14:49:12;22.74;37.00
70830;SHT30;58451;51.550;7.208;2022-09-30T14:51:48;23.35;36.38
70830;SHT30;58451;51.550;7.208;2022-09-30T14:54:20;24.06;35.67
70830;SHT30;58451;51.550;7.208;2022-09-30T14:56:57;24.68;34.50
70830;SHT30;58451;51.550;7.208;2022-09-30T14:59:31;25.11;33.35
70830;SHT30;58451;51.550;7.208;2022-09-30T15:02:14;24.39;33.42
70830;SHT30;58451;51.550;7.208;2022-09-30T15:04:48;23.04;35.44
70830;SHT30;58451;51.550;7.208;2022-09-30T15:07:24;22.32;36.23
70830;SHT30;58451;51.550;7.208;2022-09-30T15:09:51;21.55;37.38
70830;SHT30;58451;51.550;7.208;2022-09-30T15:12:19;20.84;38.81
70830;SHT30;58451;51.550;7.208;2022-09-30T15:17:25;20.13;40.41
70830;SHT30;58451;51.550;7.208;2022-09-30T15:20:22;20.52;40.26
70830;SHT30;58451;51.550;7.208;2022-09-30T15:23:02;21.14;39.22
70830;SHT30;58451;51.550;7.208;2022-09-30T15:25:43;20.77;39.95
70830;SHT30;58451;51.550;7.208;2022-09-30T15:28:10;20.24;40.55
70830;SHT30;58451;51.550;7.208;2022-09-30T15:30:38;20.12;40.98
70830;SHT30;58451;51.550;7.208;2022-09-30T15:33:14;20.85;40.20
70830;SHT30;58451;51.550;7.208;2022-09-30T15:35:45;20.98;40.28
70830;SHT30;58451;51.550;7.208;2022-09-30T15:38:22;20.44;40.28
70830;SHT30;58451;51.550;7.208;2022-09-30T15:41:11;20.24;40.99
70830;SHT30;58451;51.550;7.208;2022-09-30T15:46:30;22.82;36.61
70830;SHT30;58451;51.550;7.208;2022-09-30T15:49:02;22.74;37.31
70830;SHT30;58451;51.550;7.208;2022-09-30T15:51:38;21.75;38.79
70830;SHT30;58451;51.550;7.208;2022-09-30T15:56:41;21.32;39.62
70830;SHT30;58451;51.550;7.208;2022-09-30T15:59:12;22.31;38.42
70830;SHT30;58451;51.550;7.208;2022-09-30T16:01:40;21.56;39.14
70830;SHT30;58451;51.550;7.208;2022-09-30T16:07:05;21.86;38.98
70830;SHT30;58451;51.550;7.208;2022-09-30T16:09:39;22.21;37.86
70830;SHT30;58451;51.550;7.208;2022-09-30T16:15:05;23.14;38.26
70830;SHT30;58451;51.550;7.208;2022-09-30T16:17:43;23.49;37.82
70830;SHT30;58451;51.550;7.208;2022-09-30T16:28:10;20.92;39.79
70830;SHT30;58451;51.550;7.208;2022-09-30T16:30:40;20.28;41.06
70830;SHT30;58451;51.550;7.208;2022-09-30T16:33:13;19.87;41.57
70830;SHT30;58451;51.550;7.208;2022-09-30T16:35:41;19.39;42.48
70830;SHT30;58451;51.550;7.208;2022-09-30T16:38:11;18.89;43.35
70830;SHT30;58451;51.550;7.208;2022-09-30T16:40:42;18.55;43.88
70830;SHT30;58451;51.550;7.208;2022-09-30T16:43:09;18.24;44.38
70830;SHT30;58451;51.550;7.208;2022-09-30T16:45:37;18.02;44.85
70830;SHT30;58451;51.550;7.208;2022-09-30T16:48:15;17.73;45.82
70830;SHT30;58451;51.550;7.208;2022-09-30T16:50:47;17.43;46.28
70830;SHT30;58451;51.550;7.208;2022-09-30T16:53:19;17.17;46.62
70830;SHT30;58451;51.550;7.208;2022-09-30T16:55:47;16.93;47.18
70830;SHT30;58451;51.550;7.208;2022-09-30T16:58:13;16.69;47.56
70830;SHT30;58451;51.550;7.208;2022-09-30T17:00:41;16.48;48.16
70830;SHT30;58451;51.550;7.208;2022-09-30T17:03:12;16.27;48.43
70830;SHT30;58451;51.550;7.208;2022-09-30T17:05:44;16.09;48.85
70830;SHT30;58451;51.550;7.208;2022-09-30T17:08:18;15.89;49.58
70830;SHT30;58451;51.550;7.208;2022-09-30T17:10:47;15.73;49.86
70830;SHT30;58451;51.550;7.208;2022-09-30T17:13:16;15.58;50.27
70830;SHT30;58451;51.550;7.208;2022-09-30T17:15:48;15.43;50.50
70830;SHT30;58451;51.550;7.208;2022-09-30T17:18:17;15.28;50.79
70830;SHT30;58451;51.550;7.208;2022-09-30T17:20:45;15.15;51.26
70830;SHT30;58451;51.550;7.208;2022-09-30T17:23:19;15.04;51.38
70830;SHT30;58451;51.550;7.208;2022-09-30T17:25:47;14.94;51.68
70830;SHT30;58451;51.550;7.208;2022-09-30T17:28:14;14.85;52.09
70830;SHT30;58451;51.550;7.208;2022-09-30T17:30:43;14.77;52.43
70830;SHT30;58451;51.550;7.208;2022-09-30T17:33:13;14.69;52.61
70830;SHT30;58451;51.550;7.208;2022-09-30T17:35:41;14.62;52.91
70830;SHT30;58451;51.550;7.208;2022-09-30T17:38:09;14.53;53.14
70830;SHT30;58451;51.550;7.208;2022-09-30T17:40:38;14.47;53.40
70830;SHT30;58451;51.550;7.208;2022-09-30T17:43:24;14.38;53.59
70830;SHT30;58451;51.550;7.208;2022-09-30T17:45:50;14.31;53.79
70830;SHT30;58451;51.550;7.208;2022-09-30T17:48:20;14.22;53.95
70830;SHT30;58451;51.550;7.208;2022-09-30T17:50:47;14.14;54.17
70830;SHT30;58451;51.550;7.208;2022-09-30T17:53:14;14.05;54.45
70830;SHT30;58451;51.550;7.208;2022-09-30T17:55:44;13.95;54.76
70830;SHT30;58451;51.550;7.208;2022-09-30T17:58:15;13.87;54.92
70830;SHT30;58451;51.550;7.208;2022-09-30T18:00:43;13.79;55.19
70830;SHT30;58451;51.550;7.208;2022-09-30T18:03:12;13.73;55.35
70830;SHT30;58451;51.550;7.208;2022-09-30T18:05:39;13.69;55.68
70830;SHT30;58451;51.550;7.208;2022-09-30T18:08:05;13.67;55.91
70830;SHT30;58451;51.550;7.208;2022-09-30T18:10:34;13.63;56.19
70830;SHT30;58451;51.550;7.208;2022-09-30T18:13:03;13.59;56.35
70830;SHT30;58451;51.550;7.208;2022-09-30T18:15:30;13.55;56.66
70830;SHT30;58451;51.550;7.208;2022-09-30T18:17:58;13.49;56.80
70830;SHT30;58451;51.550;7.208;2022-09-30T18:20:27;13.44;57.05
70830;SHT30;58451;51.550;7.208;2022-09-30T18:22:54;13.40;58.48
70830;SHT30;58451;51.550;7.208;2022-09-30T18:25:20;13.39;58.61
70830;SHT30;58451;51.550;7.208;2022-09-30T18:27:49;13.38;58.58
70830;SHT30;58451;51.550;7.208;2022-09-30T18:30:23;13.39;59.01
70830;SHT30;58451;51.550;7.208;2022-09-30T18:32:52;13.38;58.59
70830;SHT30;58451;51.550;7.208;2022-09-30T18:35:20;13.37;58.53
70830;SHT30;58451;51.550;7.208;2022-09-30T18:37:50;13.35;58.51
70830;SHT30;58451;51.550;7.208;2022-09-30T18:40:20;13.35;58.83
70830;SHT30;58451;51.550;7.208;2022-09-30T18:42:54;13.33;58.75
70830;SHT30;58451;51.550;7.208;2022-09-30T18:45:25;13.33;58.80
70830;SHT30;58451;51.550;7.208;2022-09-30T18:47:55;13.30;58.93
70830;SHT30;58451;51.550;7.208;2022-09-30T18:50:25;13.29;59.02
70830;SHT30;58451;51.550;7.208;2022-09-30T18:52:54;13.27;59.16
70830;SHT30;58451;51.550;7.208;2022-09-30T18:55:23;13.24;59.20
70830;SHT30;58451;51.550;7.208;2022-09-30T18:57:54;13.21;59.65
70830;SHT30;58451;51.550;7.208;2022-09-30T19:00:22;13.20;59.74
70830;SHT30;58451;51.550;7.208;2022-09-30T19:02:50;13.16;59.70
70830;SHT30;58451;51.550;7.208;2022-09-30T19:05:18;13.14;59.65
70830;SHT30;58451;51.550;7.208;2022-09-30T19:07:45;13.10;59.76
70830;SHT30;58451;51.550;7.208;2022-09-30T19:10:13;13.06;59.86
70830;SHT30;58451;51.550;7.208;2022-09-30T19:12:40;13.02;59.93
70830;SHT30;58451;51.550;7.208;2022-09-30T19:15:11;12.97;59.96
70830;SHT30;58451;51.550;7.208;2022-09-30T19:17:41;12.91;60.05
70830;SHT30;58451;51.550;7.208;2022-09-30T19:20:09;12.85;60.21
70830;SHT30;58451;51.550;7.208;2022-09-30T19:22:39;12.80;60.37
70830;SHT30;58451;51.550;7.208;2022-09-30T19:25:07;12.76;60.47
70830;SHT30;58451;51.550;7.208;2022-09-30T19:27:37;12.69;60.67
70830;SHT30;58451;51.550;7.208;2022-09-30T19:30:07;12.63;60.59
70830;SHT30;58451;51.550;7.208;2022-09-30T19:32:37;12.56;60.78
70830;SHT30;58451;51.550;7.208;2022-09-30T19:35:05;12.48;60.82
70830;SHT30;58451;51.550;7.208;2022-09-30T19:37:39;12.43;61.08
70830;SHT30;58451;51.550;7.208;2022-09-30T19:40:25;12.37;61.28
70830;SHT30;58451;51.550;7.208;2022-09-30T19:42:52;12.32;61.36
70830;SHT30;58451;51.550;7.208;2022-09-30T19:45:18;12.28;61.54
70830;SHT30;58451;51.550;7.208;2022-09-30T19:47:51;12.26;61.67
70830;SHT30;58451;51.550;7.208;2022-09-30T19:50:19;12.26;61.83
70830;SHT30;58451;51.550;7.208;2022-09-30T19:52:46;12.24;61.95
70830;SHT30;58451;51.550;7.208;2022-09-30T19:55:23;12.22;62.07
70830;SHT30;58451;51.550;7.208;2022-09-30T19:57:51;12.18;62.17
70830;SHT30;58451;51.550;7.208;2022-09-30T20:00:18;12.14;62.21
70830;SHT30;58451;51.550;7.208;2022-09-30T20:02:45;12.10;62.34
70830;SHT30;58451;51.550;7.208;2022-09-30T20:05:12;12.07;62.78
70830;SHT30;58451;51.550;7.208;2022-09-30T20:07:39;12.06;62.94
70830;SHT30;58451;51.550;7.208;2022-09-30T20:10:06;12.05;62.98
70830;SHT30;58451;51.550;7.208;2022-09-30T20:12:33;12.03;62.94
70830;SHT30;58451;51.550;7.208;2022-09-30T20:14:59;12.01;63.03
70830;SHT30;58451;51.550;7.208;2022-09-30T20:17:45;11.98;63.11
70830;SHT30;58451;51.550;7.208;2022-09-30T20:20:11;11.98;63.89